ΕΜΥ, Εθνική Μετεωρολογική Υπηρεσία - Δελτία Καιρού, Προγνώσεις

ΑΕΡΟΝΑΥΤΙΛΙΑ

GREEK AIRPORTS CODES

TAF LGKC 061400Z 0615/0624 26015KT 9999 FEW012 TEMPO 0615/0621 26015G25KT=

EUROPEAN AIRPORTS CODES